ETNN

Norvenich Airport

Germany

ETNN 110848Z 10008KT 2700 RADZ BR FEW007 BKN011 02/01 Q0980 YLO GRN TEMPO YLO

Observed Flight Rules
Dec-11 @ 08:48 UTC (41 minutes ago) Instrument Flight Rules
Wind Visibility Clouds Conditions
100° at 8 knots 2,704 meters
  • Few at 700' AGL
  • Broken at 1,100' AGL
  • Rain
  • Drizzle
  • Mist
Temperatures Readings
Current 2°C / 36°F
Dewpoint 1°C / 34°F
Humidity 93%
Altimeter 28.94" Hg
Pressure 980 hPa
Elevation 135
Observed Flight Rules
Dec-11 @ 08:48 UTC
(41 minutes ago)
IFR
Wind Visibility
100° at 8 knots 2,704 meters
Clouds
  • Few at 700' AGL
  • Broken at 1,100' AGL
Conditions
  • Rain
  • Drizzle
  • Mist
Temperature Dewpoint
2°C / 36°F 1°C / 34°F
Humidity Altimeter Pressure
93% 28.94" Hg 980 hPa